首页
METAR-TAF:

METAR-TAF

机场 :

羅塔海軍基地

Rota, 西班牙

纬度: 36-39N, 经度: 006-21W, 海拔: 26米

当前天气观测

该预报发布于1小时和14分钟前的13:00 UTC
风速5节,风向东北,在东转东北之间变化
温度 17°C
湿度 77%
气压 1025 hPa
能见度10公里或以上
少量云层高于3200英尺

METAR: LERT 291300Z 04005KT 350V070 9999 FEW032 17/13 Q1025 NOSIG

时间: 15:14 (14:14 UTC)

预报

该预报发布于3小时和14分钟前的11:00 UTC
预报有效从29日的 12点(UTC)到 29日的 21点(UTC)
风速5节,风向北转东北
能见度10公里或以上
少量云层高于3000英尺

TAF: LERT 291100Z 2912/2921 03005KT 9999 FEW030

超过4000个机场的气象观测和天气预报(METAR&TAF报告)。

可查询的气象台以黄色和红色小点在地图上表示。

将鼠标移到小点上方,可查看气象台名称。

然后点击查看天气观测和预报。

如需切换地图:点击带黑十字的绿色按钮放大地图;点击带横线的绿色按钮缩小地图;或者点击绿色箭头查看邻近地区的地图。


METAR-TAF: